sensor_id;sensor_type;location;lat;lon;timestamp;pressure;altitude;pressure_sealevel;temperature;humidity
21824;BME280;11074;48.596;9.238;2022-09-21T00:01:19;99063.59;;;11.63;77.42
21824;BME280;11074;48.596;9.238;2022-09-21T00:03:46;99066.59;;;11.66;77.53
21824;BME280;11074;48.596;9.238;2022-09-21T00:06:15;99064.28;;;11.58;77.22
21824;BME280;11074;48.596;9.238;2022-09-21T00:08:43;99062.69;;;11.57;76.90
21824;BME280;11074;48.596;9.238;2022-09-21T00:11:23;99059.91;;;11.52;77.17
21824;BME280;11074;48.596;9.238;2022-09-21T00:14:03;99061.19;;;11.49;77.26
21824;BME280;11074;48.596;9.238;2022-09-21T00:16:32;99067.22;;;11.45;77.33
21824;BME280;11074;48.596;9.238;2022-09-21T00:18:59;99067.78;;;11.47;77.62
21824;BME280;11074;48.596;9.238;2022-09-21T00:21:25;99058.72;;;11.48;78.22
21824;BME280;11074;48.596;9.238;2022-09-21T00:23:53;99060.13;;;11.50;77.37
21824;BME280;11074;48.596;9.238;2022-09-21T00:26:25;99070.16;;;11.43;77.23
21824;BME280;11074;48.596;9.238;2022-09-21T00:28:54;99068.88;;;11.46;76.77
21824;BME280;11074;48.596;9.238;2022-09-21T00:31:21;99063.16;;;11.42;77.16
21824;BME280;11074;48.596;9.238;2022-09-21T00:33:47;99067.69;;;11.42;77.25
21824;BME280;11074;48.596;9.238;2022-09-21T00:36:18;99067.13;;;11.40;78.72
21824;BME280;11074;48.596;9.238;2022-09-21T00:38:49;99067.00;;;11.35;77.61
21824;BME280;11074;48.596;9.238;2022-09-21T00:41:15;99064.59;;;11.33;76.79
21824;BME280;11074;48.596;9.238;2022-09-21T00:46:50;99065.38;;;11.34;76.72
21824;BME280;11074;48.596;9.238;2022-09-21T00:49:18;99066.66;;;11.31;76.77
21824;BME280;11074;48.596;9.238;2022-09-21T00:51:46;99074.22;;;11.34;77.56
21824;BME280;11074;48.596;9.238;2022-09-21T00:54:24;99072.00;;;11.31;78.41
21824;BME280;11074;48.596;9.238;2022-09-21T00:56:54;99073.19;;;11.24;79.12
21824;BME280;11074;48.596;9.238;2022-09-21T00:59:21;99069.94;;;11.22;79.66
21824;BME280;11074;48.596;9.238;2022-09-21T01:01:47;99065.88;;;11.31;80.75
21824;BME280;11074;48.596;9.238;2022-09-21T01:04:15;99072.16;;;11.25;81.25
21824;BME280;11074;48.596;9.238;2022-09-21T01:06:44;99069.47;;;11.25;80.59
21824;BME280;11074;48.596;9.238;2022-09-21T01:09:11;99068.41;;;11.26;80.86
21824;BME280;11074;48.596;9.238;2022-09-21T01:12:27;99069.81;;;11.17;81.23
21824;BME280;11074;48.596;9.238;2022-09-21T01:18:13;99072.72;;;11.15;79.71
21824;BME280;11074;48.596;9.238;2022-09-21T01:21:25;99069.94;;;11.22;80.47
21824;BME280;11074;48.596;9.238;2022-09-21T01:29:44;99062.00;;;11.15;79.10
21824;BME280;11074;48.596;9.238;2022-09-21T01:32:21;99078.88;;;11.16;78.60
21824;BME280;11074;48.596;9.238;2022-09-21T01:37:34;99072.38;;;11.12;76.57
21824;BME280;11074;48.596;9.238;2022-09-21T01:40:09;99075.63;;;11.02;77.56
21824;BME280;11074;48.596;9.238;2022-09-21T01:42:40;99074.47;;;10.98;77.98
21824;BME280;11074;48.596;9.238;2022-09-21T01:45:11;99069.94;;;10.99;77.80
21824;BME280;11074;48.596;9.238;2022-09-21T01:47:42;99077.63;;;10.95;78.73
21824;BME280;11074;48.596;9.238;2022-09-21T01:50:13;99079.47;;;10.94;78.17
21824;BME280;11074;48.596;9.238;2022-09-21T01:53:08;99076.34;;;10.98;78.40
21824;BME280;11074;48.596;9.238;2022-09-21T01:55:56;99078.53;;;10.89;79.02
21824;BME280;11074;48.596;9.238;2022-09-21T01:58:58;99072.84;;;10.85;77.86
21824;BME280;11074;48.596;9.238;2022-09-21T02:01:31;99074.56;;;10.91;77.87
21824;BME280;11074;48.596;9.238;2022-09-21T02:04:05;99078.19;;;10.85;77.06
21824;BME280;11074;48.596;9.238;2022-09-21T02:06:33;99084.22;;;10.81;77.27
21824;BME280;11074;48.596;9.238;2022-09-21T02:08:59;99079.13;;;10.79;77.08
21824;BME280;11074;48.596;9.238;2022-09-21T02:11:25;99087.34;;;10.78;77.53
21824;BME280;11074;48.596;9.238;2022-09-21T02:13:54;99083.53;;;10.74;77.41
21824;BME280;11074;48.596;9.238;2022-09-21T02:16:39;99083.97;;;10.71;76.93
21824;BME280;11074;48.596;9.238;2022-09-21T02:26:12;99073.28;;;10.71;77.71
21824;BME280;11074;48.596;9.238;2022-09-21T02:28:49;99067.09;;;10.70;77.09
21824;BME280;11074;48.596;9.238;2022-09-21T02:34:05;99069.66;;;10.65;77.69
21824;BME280;11074;48.596;9.238;2022-09-21T02:36:54;99071.38;;;10.60;78.39
21824;BME280;11074;48.596;9.238;2022-09-21T02:39:37;99075.78;;;10.54;79.68
21824;BME280;11074;48.596;9.238;2022-09-21T02:42:13;99085.25;;;10.68;79.18
21824;BME280;11074;48.596;9.238;2022-09-21T02:45:08;99080.25;;;10.60;79.66
21824;BME280;11074;48.596;9.238;2022-09-21T02:47:58;99079.09;;;10.56;79.45
21824;BME280;11074;48.596;9.238;2022-09-21T02:50:54;99073.31;;;10.41;79.48
21824;BME280;11074;48.596;9.238;2022-09-21T02:53:28;99078.28;;;10.26;80.21
21824;BME280;11074;48.596;9.238;2022-09-21T02:55:59;99079.75;;;10.22;79.34
21824;BME280;11074;48.596;9.238;2022-09-21T02:58:37;99076.50;;;10.20;80.71
21824;BME280;11074;48.596;9.238;2022-09-21T03:01:06;99088.41;;;10.24;81.37
21824;BME280;11074;48.596;9.238;2022-09-21T03:03:35;99079.19;;;10.20;80.22
21824;BME280;11074;48.596;9.238;2022-09-21T03:06:01;99083.63;;;10.26;80.39
21824;BME280;11074;48.596;9.238;2022-09-21T03:08:27;99071.31;;;10.25;80.68
21824;BME280;11074;48.596;9.238;2022-09-21T03:10:53;99080.13;;;10.25;79.59
21824;BME280;11074;48.596;9.238;2022-09-21T03:13:19;99082.09;;;10.18;79.00
21824;BME280;11074;48.596;9.238;2022-09-21T03:15:45;99074.22;;;10.23;79.56
21824;BME280;11074;48.596;9.238;2022-09-21T03:18:12;99077.91;;;10.22;78.93
21824;BME280;11074;48.596;9.238;2022-09-21T03:20:41;99078.03;;;10.27;80.23
21824;BME280;11074;48.596;9.238;2022-09-21T03:23:13;99073.88;;;10.31;78.73
21824;BME280;11074;48.596;9.238;2022-09-21T03:25:42;99078.03;;;10.27;78.94
21824;BME280;11074;48.596;9.238;2022-09-21T03:28:08;99085.47;;;10.25;80.34
21824;BME280;11074;48.596;9.238;2022-09-21T03:30:35;99093.94;;;10.22;79.64
21824;BME280;11074;48.596;9.238;2022-09-21T03:33:01;99081.41;;;10.23;79.18
21824;BME280;11074;48.596;9.238;2022-09-21T03:35:27;99089.28;;;10.18;80.14
21824;BME280;11074;48.596;9.238;2022-09-21T03:37:53;99091.16;;;10.17;80.50
21824;BME280;11074;48.596;9.238;2022-09-21T03:40:19;99084.66;;;10.25;81.02
21824;BME280;11074;48.596;9.238;2022-09-21T03:42:45;99086.31;;;10.26;80.62
21824;BME280;11074;48.596;9.238;2022-09-21T03:45:11;99085.84;;;10.29;80.30
21824;BME280;11074;48.596;9.238;2022-09-21T03:47:38;99093.50;;;10.25;80.66
21824;BME280;11074;48.596;9.238;2022-09-21T03:50:06;99092.22;;;10.28;79.79
21824;BME280;11074;48.596;9.238;2022-09-21T03:52:32;99101.63;;;10.19;79.62
21824;BME280;11074;48.596;9.238;2022-09-21T03:54:58;99096.34;;;10.12;79.25
21824;BME280;11074;48.596;9.238;2022-09-21T03:57:24;99099.69;;;10.08;79.00
21824;BME280;11074;48.596;9.238;2022-09-21T03:59:50;99097.66;;;10.03;80.52
21824;BME280;11074;48.596;9.238;2022-09-21T04:02:18;99094.19;;;10.03;80.78
21824;BME280;11074;48.596;9.238;2022-09-21T04:04:45;99095.81;;;10.04;79.65
21824;BME280;11074;48.596;9.238;2022-09-21T04:07:12;99093.13;;;10.04;80.04
21824;BME280;11074;48.596;9.238;2022-09-21T04:09:38;99097.34;;;10.11;80.20
21824;BME280;11074;48.596;9.238;2022-09-21T04:12:04;99097.75;;;10.15;80.43
21824;BME280;11074;48.596;9.238;2022-09-21T04:14:29;99093.88;;;10.11;80.15
21824;BME280;11074;48.596;9.238;2022-09-21T04:16:55;99095.50;;;10.12;79.80
21824;BME280;11074;48.596;9.238;2022-09-21T04:19:21;99100.03;;;10.11;80.05
21824;BME280;11074;48.596;9.238;2022-09-21T04:21:47;99103.50;;;10.12;79.45
21824;BME280;11074;48.596;9.238;2022-09-21T04:24:16;99100.94;;;10.05;80.68
21824;BME280;11074;48.596;9.238;2022-09-21T04:26:44;99107.41;;;9.98;81.25
21824;BME280;11074;48.596;9.238;2022-09-21T04:29:13;99109.84;;;9.99;81.02
21824;BME280;11074;48.596;9.238;2022-09-21T04:31:40;99110.16;;;9.91;81.07
21824;BME280;11074;48.596;9.238;2022-09-21T04:34:08;99107.03;;;9.94;80.80
21824;BME280;11074;48.596;9.238;2022-09-21T04:36:36;99107.63;;;9.96;81.49
21824;BME280;11074;48.596;9.238;2022-09-21T04:39:03;99107.25;;;9.93;81.50
21824;BME280;11074;48.596;9.238;2022-09-21T04:41:29;99111.56;;;9.94;81.15
21824;BME280;11074;48.596;9.238;2022-09-21T04:43:55;99117.00;;;9.87;80.71
21824;BME280;11074;48.596;9.238;2022-09-21T04:46:20;99118.03;;;9.86;80.97
21824;BME280;11074;48.596;9.238;2022-09-21T04:48:47;99118.72;;;9.82;81.52
21824;BME280;11074;48.596;9.238;2022-09-21T04:51:16;99121.00;;;9.78;80.85
21824;BME280;11074;48.596;9.238;2022-09-21T04:53:43;99123.81;;;9.83;80.46
21824;BME280;11074;48.596;9.238;2022-09-21T04:56:13;99126.03;;;9.86;80.32
21824;BME280;11074;48.596;9.238;2022-09-21T04:58:40;99118.84;;;9.87;80.64
21824;BME280;11074;48.596;9.238;2022-09-21T05:01:06;99122.41;;;9.81;80.80
21824;BME280;11074;48.596;9.238;2022-09-21T05:03:32;99125.91;;;9.81;80.76
21824;BME280;11074;48.596;9.238;2022-09-21T05:05:58;99123.13;;;9.88;80.74
21824;BME280;11074;48.596;9.238;2022-09-21T05:08:26;99123.81;;;9.83;80.75
21824;BME280;11074;48.596;9.238;2022-09-21T05:11:17;99125.91;;;9.81;80.79
21824;BME280;11074;48.596;9.238;2022-09-21T05:13:44;99141.16;;;9.74;81.36
21824;BME280;11074;48.596;9.238;2022-09-21T05:16:10;99133.09;;;9.62;80.76
21824;BME280;11074;48.596;9.238;2022-09-21T05:18:36;99137.75;;;9.67;81.44
21824;BME280;11074;48.596;9.238;2022-09-21T05:21:03;99140.66;;;9.65;81.91
21824;BME280;11074;48.596;9.238;2022-09-21T05:23:31;99135.66;;;9.69;82.09
21824;BME280;11074;48.596;9.238;2022-09-21T05:25:58;99143.00;;;9.55;81.45
21824;BME280;11074;48.596;9.238;2022-09-21T05:28:24;99142.72;;;9.63;81.13
21824;BME280;11074;48.596;9.238;2022-09-21T05:31:11;99141.09;;;9.62;82.07
21824;BME280;11074;48.596;9.238;2022-09-21T05:33:49;99147.84;;;9.65;81.62
21824;BME280;11074;48.596;9.238;2022-09-21T05:36:38;99148.53;;;9.60;82.19
21824;BME280;11074;48.596;9.238;2022-09-21T05:39:06;99143.19;;;9.60;81.99
21824;BME280;11074;48.596;9.238;2022-09-21T05:41:43;99147.47;;;9.61;81.69
21824;BME280;11074;48.596;9.238;2022-09-21T05:44:13;99147.69;;;9.60;82.49
21824;BME280;11074;48.596;9.238;2022-09-21T05:46:51;99146.00;;;9.65;82.79
21824;BME280;11074;48.596;9.238;2022-09-21T05:52:15;99147.56;;;9.73;82.44
21824;BME280;11074;48.596;9.238;2022-09-21T05:55:01;99158.00;;;9.74;82.94
21824;BME280;11074;48.596;9.238;2022-09-21T05:57:44;99159.66;;;9.75;82.43
21824;BME280;11074;48.596;9.238;2022-09-21T06:00:20;99152.59;;;9.81;82.75
21824;BME280;11074;48.596;9.238;2022-09-21T06:05:47;99167.66;;;9.75;82.45
21824;BME280;11074;48.596;9.238;2022-09-21T06:08:12;99160.09;;;9.72;83.41
21824;BME280;11074;48.596;9.238;2022-09-21T06:10:38;99151.63;;;9.75;82.26
21824;BME280;11074;48.596;9.238;2022-09-21T06:13:04;99156.06;;;9.63;82.91
21824;BME280;11074;48.596;9.238;2022-09-21T06:15:29;99165.03;;;9.69;82.85
21824;BME280;11074;48.596;9.238;2022-09-21T06:17:57;99164.69;;;9.65;84.67
21824;BME280;11074;48.596;9.238;2022-09-21T06:20:30;99171.78;;;9.71;82.87
21824;BME280;11074;48.596;9.238;2022-09-21T06:23:04;99169.78;;;9.67;84.52
21824;BME280;11074;48.596;9.238;2022-09-21T06:25:30;99176.38;;;9.64;83.02
21824;BME280;11074;48.596;9.238;2022-09-21T06:28:06;99176.38;;;9.64;85.44
21824;BME280;11074;48.596;9.238;2022-09-21T06:30:32;99167.94;;;9.67;83.36
21824;BME280;11074;48.596;9.238;2022-09-21T06:33:04;99168.19;;;9.66;83.43
21824;BME280;11074;48.596;9.238;2022-09-21T06:35:32;99171.19;;;9.69;83.50
21824;BME280;11074;48.596;9.238;2022-09-21T06:38:06;99172.16;;;9.75;83.19
21824;BME280;11074;48.596;9.238;2022-09-21T06:40:35;99170.53;;;9.74;84.25
21824;BME280;11074;48.596;9.238;2022-09-21T06:43:04;99163.34;;;9.74;83.08
21824;BME280;11074;48.596;9.238;2022-09-21T06:45:30;99162.06;;;9.77;83.69
21824;BME280;11074;48.596;9.238;2022-09-21T06:47:56;99168.81;;;9.80;84.21
21824;BME280;11074;48.596;9.238;2022-09-21T06:50:22;99166.31;;;9.85;83.35
21824;BME280;11074;48.596;9.238;2022-09-21T06:52:49;99162.75;;;9.91;84.13
21824;BME280;11074;48.596;9.238;2022-09-21T06:55:14;99151.91;;;9.86;84.30
21824;BME280;11074;48.596;9.238;2022-09-21T06:57:40;99167.44;;;9.95;83.85
21824;BME280;11074;48.596;9.238;2022-09-21T07:00:10;99163.41;;;10.04;83.50
21824;BME280;11074;48.596;9.238;2022-09-21T07:02:36;99159.91;;;10.04;83.32
21824;BME280;11074;48.596;9.238;2022-09-21T07:05:03;99156.81;;;10.07;83.60
21824;BME280;11074;48.596;9.238;2022-09-21T07:07:29;99158.38;;;10.14;84.72
21824;BME280;11074;48.596;9.238;2022-09-21T07:09:57;99156.31;;;10.16;83.51
21824;BME280;11074;48.596;9.238;2022-09-21T07:12:29;99154.09;;;10.13;84.52
21824;BME280;11074;48.596;9.238;2022-09-21T07:14:59;99154.44;;;10.17;84.55
21824;BME280;11074;48.596;9.238;2022-09-21T07:17:25;99156.91;;;10.18;84.13
21824;BME280;11074;48.596;9.238;2022-09-21T07:19:51;99159.94;;;10.22;83.60
21824;BME280;11074;48.596;9.238;2022-09-21T07:22:16;99164.25;;;10.23;84.52
21824;BME280;11074;48.596;9.238;2022-09-21T07:24:42;99165.66;;;10.25;83.91
21824;BME280;11074;48.596;9.238;2022-09-21T07:27:08;99159.84;;;10.28;82.94
21824;BME280;11074;48.596;9.238;2022-09-21T07:29:33;99168.75;;;10.22;83.83
21824;BME280;11074;48.596;9.238;2022-09-21T07:31:59;99166.09;;;10.22;83.89
21824;BME280;11074;48.596;9.238;2022-09-21T07:34:25;99169.16;;;10.26;83.97
21824;BME280;11074;48.596;9.238;2022-09-21T07:36:51;99167.06;;;10.28;83.63
21824;BME280;11074;48.596;9.238;2022-09-21T07:39:16;99168.00;;;10.33;84.15
21824;BME280;11074;48.596;9.238;2022-09-21T07:41:42;99168.38;;;10.37;83.59
21824;BME280;11074;48.596;9.238;2022-09-21T07:44:08;99171.13;;;10.30;83.63
21824;BME280;11074;48.596;9.238;2022-09-21T07:46:33;99176.84;;;10.34;84.18
21824;BME280;11074;48.596;9.238;2022-09-21T07:49:01;99165.13;;;10.35;83.13
21824;BME280;11074;48.596;9.238;2022-09-21T07:51:29;99172.91;;;10.37;83.36
21824;BME280;11074;48.596;9.238;2022-09-21T07:53:56;99170.69;;;10.33;83.82
21824;BME280;11074;48.596;9.238;2022-09-21T07:56:22;99168.38;;;10.37;83.59
21824;BME280;11074;48.596;9.238;2022-09-21T07:58:48;99162.94;;;10.44;84.45
21824;BME280;11074;48.596;9.238;2022-09-21T08:01:40;99163.56;;;10.46;84.38
21824;BME280;11074;48.596;9.238;2022-09-21T08:04:09;99162.28;;;10.48;84.38
21824;BME280;11074;48.596;9.238;2022-09-21T08:06:37;99163.88;;;10.49;84.86
21824;BME280;11074;48.596;9.238;2022-09-21T08:09:05;99163.22;;;10.54;85.07
21824;BME280;11074;48.596;9.238;2022-09-21T08:11:32;99160.06;;;10.57;85.05
21824;BME280;11074;48.596;9.238;2022-09-21T08:14:01;99162.75;;;10.57;84.86
21824;BME280;11074;48.596;9.238;2022-09-21T08:16:30;99166.16;;;10.64;84.63
21824;BME280;11074;48.596;9.238;2022-09-21T08:18:56;99160.00;;;10.63;84.86
21824;BME280;11074;48.596;9.238;2022-09-21T08:21:22;99156.06;;;10.66;84.48
21824;BME280;11074;48.596;9.238;2022-09-21T08:23:48;99162.09;;;10.61;84.19
21824;BME280;11074;48.596;9.238;2022-09-21T08:26:18;99157.50;;;10.50;85.20
21824;BME280;11074;48.596;9.238;2022-09-21T08:28:52;99156.94;;;10.48;85.62
21824;BME280;11074;48.596;9.238;2022-09-21T08:31:20;99148.09;;;10.48;86.11
21824;BME280;11074;48.596;9.238;2022-09-21T08:33:50;99153.78;;;10.51;86.38
21824;BME280;11074;48.596;9.238;2022-09-21T08:36:18;99144.28;;;10.25;87.95
21824;BME280;11074;48.596;9.238;2022-09-21T08:38:44;99145.25;;;10.13;89.51
21824;BME280;11074;48.596;9.238;2022-09-21T08:41:37;99155.31;;;9.93;91.49
21824;BME280;11074;48.596;9.238;2022-09-21T08:44:18;99148.38;;;9.92;91.25
21824;BME280;11074;48.596;9.238;2022-09-21T08:49:30;99145.59;;;9.98;91.79
21824;BME280;11074;48.596;9.238;2022-09-21T08:52:06;99151.19;;;9.97;92.63
21824;BME280;11074;48.596;9.238;2022-09-21T08:54:42;99152.25;;;10.14;91.84
21824;BME280;11074;48.596;9.238;2022-09-21T08:57:13;99139.47;;;10.16;92.04
21824;BME280;11074;48.596;9.238;2022-09-21T08:59:49;99147.25;;;10.17;92.59
21824;BME280;11074;48.596;9.238;2022-09-21T09:02:54;99140.13;;;10.29;91.99
21824;BME280;11074;48.596;9.238;2022-09-21T09:05:51;99132.13;;;10.41;92.12
21824;BME280;11074;48.596;9.238;2022-09-21T09:09:04;99126.00;;;10.52;91.91
21824;BME280;11074;48.596;9.238;2022-09-21T09:20:08;99119.28;;;11.14;91.83
21824;BME280;11074;48.596;9.238;2022-09-21T09:23:26;99114.41;;;11.23;91.47
21824;BME280;11074;48.596;9.238;2022-09-21T09:25:57;99112.53;;;11.35;91.20
21824;BME280;11074;48.596;9.238;2022-09-21T09:28:27;99117.75;;;11.53;89.41
21824;BME280;11074;48.596;9.238;2022-09-21T09:31:24;99104.72;;;11.56;89.42
21824;BME280;11074;48.596;9.238;2022-09-21T09:34:17;99111.47;;;11.71;88.52
21824;BME280;11074;48.596;9.238;2022-09-21T09:36:56;99098.09;;;11.71;88.42
21824;BME280;11074;48.596;9.238;2022-09-21T09:39:23;99098.50;;;11.79;86.15
21824;BME280;11074;48.596;9.238;2022-09-21T09:50:11;99086.88;;;12.13;85.25
21824;BME280;11074;48.596;9.238;2022-09-21T09:52:39;99082.78;;;12.11;84.17
21824;BME280;11074;48.596;9.238;2022-09-21T09:55:22;99092.06;;;12.32;84.38
21824;BME280;11074;48.596;9.238;2022-09-21T09:57:51;99088.31;;;12.33;84.18
21824;BME280;11074;48.596;9.238;2022-09-21T10:00:20;99081.47;;;12.53;82.90
21824;BME280;11074;48.596;9.238;2022-09-21T10:02:51;99083.06;;;12.54;82.62
21824;BME280;11074;48.596;9.238;2022-09-21T10:05:35;99076.47;;;12.62;81.98
21824;BME280;11074;48.596;9.238;2022-09-21T10:08:03;99079.16;;;12.62;80.90
21824;BME280;11074;48.596;9.238;2022-09-21T10:10:31;99071.31;;;12.72;80.38
21824;BME280;11074;48.596;9.238;2022-09-21T10:13:34;99069.84;;;12.81;80.17
21824;BME280;11074;48.596;9.238;2022-09-21T10:16:14;99077.88;;;12.81;78.81
21824;BME280;11074;48.596;9.238;2022-09-21T10:21:33;99071.16;;;13.12;78.59
21824;BME280;11074;48.596;9.238;2022-09-21T10:24:06;99066.50;;;13.07;76.79
21824;BME280;11074;48.596;9.238;2022-09-21T10:27:14;99054.13;;;13.23;76.77
21824;BME280;11074;48.596;9.238;2022-09-21T10:29:44;99051.28;;;13.29;76.64
21824;BME280;11074;48.596;9.238;2022-09-21T10:35:13;99059.09;;;13.53;73.93
21824;BME280;11074;48.596;9.238;2022-09-21T10:37:45;99049.22;;;13.36;72.99
21824;BME280;11074;48.596;9.238;2022-09-21T10:42:47;99039.91;;;13.66;76.24
21824;BME280;11074;48.596;9.238;2022-09-21T10:45:17;99031.75;;;13.77;75.73
21824;BME280;11074;48.596;9.238;2022-09-21T10:48:15;99028.97;;;13.94;74.10
21824;BME280;11074;48.596;9.238;2022-09-21T10:50:45;99035.72;;;13.96;73.38
21824;BME280;11074;48.596;9.238;2022-09-21T10:53:26;99036.88;;;14.06;72.46
21824;BME280;11074;48.596;9.238;2022-09-21T10:59:11;99033.53;;;13.93;72.42
21824;BME280;11074;48.596;9.238;2022-09-21T11:01:50;99025.25;;;14.00;72.05
21824;BME280;11074;48.596;9.238;2022-09-21T11:04:47;99025.59;;;13.82;70.05
21824;BME280;11074;48.596;9.238;2022-09-21T11:07:40;99021.63;;;14.11;68.73
21824;BME280;11074;48.596;9.238;2022-09-21T11:13:59;99019.38;;;14.30;65.65
21824;BME280;11074;48.596;9.238;2022-09-21T11:16:37;99029.38;;;14.61;67.46
21824;BME280;11074;48.596;9.238;2022-09-21T11:19:39;99023.81;;;14.73;67.36
21824;BME280;11074;48.596;9.238;2022-09-21T11:22:18;99022.41;;;15.02;65.67
21824;BME280;11074;48.596;9.238;2022-09-21T11:27:38;99015.16;;;15.02;65.95
21824;BME280;11074;48.596;9.238;2022-09-21T11:30:11;99015.13;;;14.97;63.56
21824;BME280;11074;48.596;9.238;2022-09-21T11:33:35;99010.63;;;15.13;63.26
21824;BME280;11074;48.596;9.238;2022-09-21T11:36:23;99008.84;;;15.29;62.82
21824;BME280;11074;48.596;9.238;2022-09-21T11:39:09;99007.91;;;15.55;62.70
21824;BME280;11074;48.596;9.238;2022-09-21T11:44:57;99006.69;;;15.93;61.00
21824;BME280;11074;48.596;9.238;2022-09-21T11:51:16;98987.91;;;16.38;58.82
21824;BME280;11074;48.596;9.238;2022-09-21T11:57:38;98984.16;;;16.59;56.42
21824;BME280;11074;48.596;9.238;2022-09-21T12:00:19;98980.38;;;16.70;57.70
21824;BME280;11074;48.596;9.238;2022-09-21T12:08:51;98981.16;;;16.86;54.68
21824;BME280;11074;48.596;9.238;2022-09-21T12:14:19;98978.97;;;17.08;55.48
21824;BME280;11074;48.596;9.238;2022-09-21T12:17:16;98972.69;;;17.23;55.83
21824;BME280;11074;48.596;9.238;2022-09-21T12:22:57;98963.41;;;17.49;54.89
21824;BME280;11074;48.596;9.238;2022-09-21T12:25:33;98964.22;;;17.49;53.35
21824;BME280;11074;48.596;9.238;2022-09-21T12:28:11;98962.03;;;17.56;52.88
21824;BME280;11074;48.596;9.238;2022-09-21T12:30:44;98963.91;;;17.66;55.39
21824;BME280;11074;48.596;9.238;2022-09-21T12:33:22;98963.56;;;17.73;53.79
21824;BME280;11074;48.596;9.238;2022-09-21T12:36:06;98953.81;;;17.82;53.26
21824;BME280;11074;48.596;9.238;2022-09-21T12:38:44;98959.13;;;17.97;54.00
21824;BME280;11074;48.596;9.238;2022-09-21T12:44:24;98952.22;;;18.20;51.89
21824;BME280;11074;48.596;9.238;2022-09-21T12:47:09;98944.00;;;18.30;52.46
21824;BME280;11074;48.596;9.238;2022-09-21T12:49:46;98946.84;;;18.48;51.27
21824;BME280;11074;48.596;9.238;2022-09-21T12:52:24;98938.69;;;18.53;50.31
21824;BME280;11074;48.596;9.238;2022-09-21T12:55:21;98952.34;;;18.72;52.33
21824;BME280;11074;48.596;9.238;2022-09-21T13:01:35;98944.56;;;18.65;48.58
21824;BME280;11074;48.596;9.238;2022-09-21T13:04:38;98946.03;;;18.76;50.01
21824;BME280;11074;48.596;9.238;2022-09-21T13:08:00;98935.31;;;18.66;50.82
21824;BME280;11074;48.596;9.238;2022-09-21T13:10:46;98938.84;;;18.67;49.14
21824;BME280;11074;48.596;9.238;2022-09-21T13:13:26;98940.97;;;18.70;49.12
21824;BME280;11074;48.596;9.238;2022-09-21T13:15:53;98947.63;;;18.83;50.44
21824;BME280;11074;48.596;9.238;2022-09-21T13:18:30;98945.94;;;18.58;47.21
21824;BME280;11074;48.596;9.238;2022-09-21T13:21:20;98933.72;;;18.65;49.63
21824;BME280;11074;48.596;9.238;2022-09-21T13:24:04;98939.00;;;18.47;48.34
21824;BME280;11074;48.596;9.238;2022-09-21T13:26:42;98937.31;;;18.56;47.45
21824;BME280;11074;48.596;9.238;2022-09-21T13:34:33;98930.63;;;18.48;47.84
21824;BME280;11074;48.596;9.238;2022-09-21T13:39:42;98933.25;;;18.82;47.94
21824;BME280;11074;48.596;9.238;2022-09-21T13:44:56;98923.06;;;18.98;48.40
21824;BME280;11074;48.596;9.238;2022-09-21T13:47:36;98918.75;;;18.97;47.47
21824;BME280;11074;48.596;9.238;2022-09-21T13:50:18;98918.25;;;18.66;46.15
21824;BME280;11074;48.596;9.238;2022-09-21T13:52:50;98916.50;;;18.80;46.65
21824;BME280;11074;48.596;9.238;2022-09-21T13:55:40;98918.28;;;18.90;47.23
21824;BME280;11074;48.596;9.238;2022-09-21T13:58:29;98911.91;;;19.04;46.69
21824;BME280;11074;48.596;9.238;2022-09-21T14:01:14;98909.50;;;19.03;46.67
21824;BME280;11074;48.596;9.238;2022-09-21T14:03:58;98908.13;;;19.00;46.77
21824;BME280;11074;48.596;9.238;2022-09-21T14:06:27;98896.63;;;19.13;48.37
21824;BME280;11074;48.596;9.238;2022-09-21T14:09:00;98908.41;;;19.22;49.22
21824;BME280;11074;48.596;9.238;2022-09-21T14:11:41;98894.78;;;19.27;48.55
21824;BME280;11074;48.596;9.238;2022-09-21T14:14:34;98903.97;;;19.31;49.13
21824;BME280;11074;48.596;9.238;2022-09-21T14:17:35;98898.91;;;19.25;48.41
21824;BME280;11074;48.596;9.238;2022-09-21T14:20:03;98893.78;;;19.23;47.69
21824;BME280;11074;48.596;9.238;2022-09-21T14:22:36;98898.03;;;19.29;49.18
21824;BME280;11074;48.596;9.238;2022-09-21T14:25:26;98896.66;;;19.32;49.69
21824;BME280;11074;48.596;9.238;2022-09-21T14:27:58;98888.19;;;19.39;48.68
21824;BME280;11074;48.596;9.238;2022-09-21T14:30:30;98895.97;;;19.45;48.33
21824;BME280;11074;48.596;9.238;2022-09-21T14:35:37;98883.56;;;19.39;48.14
21824;BME280;11074;48.596;9.238;2022-09-21T14:38:16;98898.03;;;19.29;46.88
21824;BME280;11074;48.596;9.238;2022-09-21T14:40:55;98894.13;;;19.17;46.65
21824;BME280;11074;48.596;9.238;2022-09-21T14:43:34;98892.22;;;18.94;46.67
21824;BME280;11074;48.596;9.238;2022-09-21T15:00:45;98877.22;;;18.54;49.87
21824;BME280;11074;48.596;9.238;2022-09-21T15:09:59;98871.94;;;18.91;46.75
21824;BME280;11074;48.596;9.238;2022-09-21T15:13:05;98863.16;;;18.99;45.94
21824;BME280;11074;48.596;9.238;2022-09-21T15:18:22;98856.50;;;18.92;46.79
21824;BME280;11074;48.596;9.238;2022-09-21T15:21:02;98871.75;;;18.83;47.13
21824;BME280;11074;48.596;9.238;2022-09-21T15:23:39;98861.72;;;18.83;47.16
21824;BME280;11074;48.596;9.238;2022-09-21T15:26:12;98863.56;;;18.88;47.46
21824;BME280;11074;48.596;9.238;2022-09-21T15:28:45;98858.44;;;18.86;45.72
21824;BME280;11074;48.596;9.238;2022-09-21T15:31:17;98863.94;;;18.81;46.16
21824;BME280;11074;48.596;9.238;2022-09-21T15:33:45;98857.13;;;18.84;45.57
21824;BME280;11074;48.596;9.238;2022-09-21T15:36:23;98859.09;;;18.78;46.77
21824;BME280;11074;48.596;9.238;2022-09-21T15:38:52;98854.41;;;18.84;46.45
21824;BME280;11074;48.596;9.238;2022-09-21T15:41:45;98858.84;;;18.74;46.13
21824;BME280;11074;48.596;9.238;2022-09-21T15:44:13;98853.81;;;18.63;47.04
21824;BME280;11074;48.596;9.238;2022-09-21T15:46:43;98861.47;;;18.56;47.06
21824;BME280;11074;48.596;9.238;2022-09-21T15:49:15;98863.34;;;18.27;45.88
21824;BME280;11074;48.596;9.238;2022-09-21T15:52:02;98864.22;;;18.22;46.60
21824;BME280;11074;48.596;9.238;2022-09-21T15:54:39;98863.41;;;18.22;48.10